Bucktail, Nebraska
Current Conditions -  °F | °C
As of 8:35 PM on Wednesday 22 Oct 2014 (Local Time) from KOGA Reporting Station
Clear Clear  
Wind Chill: 50°   Ceiling: Unl
Heat Index: 50°   Visibility: 10mi
Dew Point: 36°   Wind: 0mph
Humidity: 57%   Direction: NA
Pressure: 30.08"   Gusts: NA
Location:  41.2105°N, 101.376°W
Report Text: KOGA 230235Z AUTO 00000KT 10SM CLR 10/02 A3008 RMK AO2 T01020021
Loading
Personal Weather Stations






























Interactive Weather Map
Tropical Storm Tracking
New forecast layout! Learn more

10-Day Weather Forecast

Advertisements
Track Severe Weather on mobile